sensor_id;sensor_type;location;lat;lon;timestamp;P1;durP1;ratioP1;P2;durP2;ratioP2
24843;SDS011;12921;51.392;12.240;2023-05-10T00:02:16;0.93;;;0.93;;
24843;SDS011;12921;51.392;12.240;2023-05-10T00:04:42;0.20;;;0.20;;
24843;SDS011;12921;51.392;12.240;2023-05-10T00:07:08;0.95;;;0.85;;
24843;SDS011;12921;51.392;12.240;2023-05-10T00:09:35;2.10;;;1.48;;
24843;SDS011;12921;51.392;12.240;2023-05-10T00:12:01;0.63;;;0.63;;
24843;SDS011;12921;51.392;12.240;2023-05-10T00:14:27;3.20;;;1.33;;
24843;SDS011;12921;51.392;12.240;2023-05-10T00:16:53;1.65;;;0.90;;
24843;SDS011;12921;51.392;12.240;2023-05-10T00:19:19;1.27;;;1.27;;
24843;SDS011;12921;51.392;12.240;2023-05-10T00:21:45;2.00;;;1.77;;
24843;SDS011;12921;51.392;12.240;2023-05-10T00:24:11;1.75;;;1.42;;
24843;SDS011;12921;51.392;12.240;2023-05-10T00:26:37;2.63;;;2.33;;
24843;SDS011;12921;51.392;12.240;2023-05-10T00:29:03;5.72;;;3.03;;
24843;SDS011;12921;51.392;12.240;2023-05-10T00:31:29;3.20;;;2.60;;
24843;SDS011;12921;51.392;12.240;2023-05-10T00:33:55;4.00;;;2.17;;
24843;SDS011;12921;51.392;12.240;2023-05-10T00:36:21;2.95;;;2.03;;
24843;SDS011;12921;51.392;12.240;2023-05-10T00:38:47;7.13;;;2.60;;
24843;SDS011;12921;51.392;12.240;2023-05-10T00:41:13;4.22;;;2.67;;
24843;SDS011;12921;51.392;12.240;2023-05-10T00:43:39;2.38;;;1.98;;
24843;SDS011;12921;51.392;12.240;2023-05-10T00:46:05;2.80;;;2.47;;
24843;SDS011;12921;51.392;12.240;2023-05-10T00:48:31;2.33;;;1.58;;
24843;SDS011;12921;51.392;12.240;2023-05-10T00:50:57;3.17;;;2.70;;
24843;SDS011;12921;51.392;12.240;2023-05-10T00:53:23;4.78;;;2.67;;
24843;SDS011;12921;51.392;12.240;2023-05-10T00:55:50;2.95;;;2.42;;
24843;SDS011;12921;51.392;12.240;2023-05-10T00:58:16;4.40;;;3.03;;
24843;SDS011;12921;51.392;12.240;2023-05-10T01:00:42;7.60;;;3.33;;
24843;SDS011;12921;51.392;12.240;2023-05-10T01:03:10;4.43;;;3.30;;
24843;SDS011;12921;51.392;12.240;2023-05-10T01:05:36;4.35;;;3.72;;
24843;SDS011;12921;51.392;12.240;2023-05-10T01:08:02;2.80;;;2.25;;
24843;SDS011;12921;51.392;12.240;2023-05-10T01:10:28;9.77;;;6.72;;
24843;SDS011;12921;51.392;12.240;2023-05-10T01:12:54;5.30;;;3.15;;
24843;SDS011;12921;51.392;12.240;2023-05-10T01:15:21;7.70;;;3.88;;
24843;SDS011;12921;51.392;12.240;2023-05-10T01:17:47;4.93;;;3.10;;
24843;SDS011;12921;51.392;12.240;2023-05-10T01:20:14;7.60;;;3.70;;
24843;SDS011;12921;51.392;12.240;2023-05-10T01:28:07;2.67;;;2.05;;
24843;SDS011;12921;51.392;12.240;2023-05-10T01:30:46;3.00;;;2.22;;
24843;SDS011;12921;51.392;12.240;2023-05-10T01:33:21;3.83;;;2.50;;
24843;SDS011;12921;51.392;12.240;2023-05-10T01:38:47;4.07;;;2.83;;
24843;SDS011;12921;51.392;12.240;2023-05-10T01:46:36;4.63;;;2.92;;
24843;SDS011;12921;51.392;12.240;2023-05-10T01:49:02;2.35;;;2.15;;
24843;SDS011;12921;51.392;12.240;2023-05-10T01:51:31;3.10;;;2.30;;
24843;SDS011;12921;51.392;12.240;2023-05-10T01:54:00;1.20;;;1.05;;
24843;SDS011;12921;51.392;12.240;2023-05-10T01:56:27;3.30;;;2.50;;
24843;SDS011;12921;51.392;12.240;2023-05-10T01:58:54;0.93;;;0.93;;
24843;SDS011;12921;51.392;12.240;2023-05-10T02:01:21;3.67;;;2.53;;
24843;SDS011;12921;51.392;12.240;2023-05-10T02:03:47;1.00;;;1.00;;
24843;SDS011;12921;51.392;12.240;2023-05-10T02:06:15;2.85;;;1.92;;
24843;SDS011;12921;51.392;12.240;2023-05-10T02:08:42;1.60;;;1.50;;
24843;SDS011;12921;51.392;12.240;2023-05-10T02:11:08;1.42;;;1.25;;
24843;SDS011;12921;51.392;12.240;2023-05-10T02:13:36;1.70;;;0.70;;
24843;SDS011;12921;51.392;12.240;2023-05-10T02:16:04;1.98;;;1.40;;
24843;SDS011;12921;51.392;12.240;2023-05-10T02:18:31;0.85;;;0.85;;
24843;SDS011;12921;51.392;12.240;2023-05-10T02:20:58;0.75;;;0.75;;
24843;SDS011;12921;51.392;12.240;2023-05-10T02:23:25;0.98;;;0.93;;
24843;SDS011;12921;51.392;12.240;2023-05-10T02:25:51;1.55;;;1.35;;
24843;SDS011;12921;51.392;12.240;2023-05-10T02:28:19;1.55;;;1.17;;
24843;SDS011;12921;51.392;12.240;2023-05-10T02:30:46;1.23;;;1.02;;
24843;SDS011;12921;51.392;12.240;2023-05-10T02:33:12;2.20;;;1.10;;
24843;SDS011;12921;51.392;12.240;2023-05-10T02:35:39;0.40;;;0.40;;
24843;SDS011;12921;51.392;12.240;2023-05-10T02:38:05;2.17;;;1.45;;
24843;SDS011;12921;51.392;12.240;2023-05-10T02:40:32;0.85;;;0.85;;
24843;SDS011;12921;51.392;12.240;2023-05-10T02:42:59;2.63;;;2.20;;
24843;SDS011;12921;51.392;12.240;2023-05-10T02:45:27;4.95;;;0.50;;
24843;SDS011;12921;51.392;12.240;2023-05-10T02:47:55;3.33;;;2.25;;
24843;SDS011;12921;51.392;12.240;2023-05-10T02:50:21;2.28;;;2.08;;
24843;SDS011;12921;51.392;12.240;2023-05-10T02:52:49;2.05;;;1.40;;
24843;SDS011;12921;51.392;12.240;2023-05-10T02:55:19;2.25;;;2.05;;
24843;SDS011;12921;51.392;12.240;2023-05-10T02:57:50;1.50;;;1.40;;
24843;SDS011;12921;51.392;12.240;2023-05-10T03:00:16;2.28;;;2.08;;
24843;SDS011;12921;51.392;12.240;2023-05-10T03:02:44;6.22;;;1.67;;
24843;SDS011;12921;51.392;12.240;2023-05-10T03:05:10;1.20;;;0.65;;
24843;SDS011;12921;51.392;12.240;2023-05-10T03:07:36;3.85;;;2.22;;
24843;SDS011;12921;51.392;12.240;2023-05-10T03:10:02;0.70;;;0.70;;
24843;SDS011;12921;51.392;12.240;2023-05-10T03:19:53;1.98;;;1.27;;
24843;SDS011;12921;51.392;12.240;2023-05-10T03:22:34;1.55;;;1.45;;
24843;SDS011;12921;51.392;12.240;2023-05-10T03:25:04;1.92;;;1.42;;
24843;SDS011;12921;51.392;12.240;2023-05-10T03:27:31;0.20;;;0.20;;
24843;SDS011;12921;51.392;12.240;2023-05-10T03:29:58;0.43;;;0.40;;
24843;SDS011;12921;51.392;12.240;2023-05-10T03:32:24;0.10;;;0.10;;
24843;SDS011;12921;51.392;12.240;2023-05-10T03:34:52;0.77;;;0.77;;
24843;SDS011;12921;51.392;12.240;2023-05-10T03:37:17;0.10;;;0.10;;
24843;SDS011;12921;51.392;12.240;2023-05-10T03:39:43;0.10;;;0.10;;
24843;SDS011;12921;51.392;12.240;2023-05-10T03:42:09;0.10;;;0.10;;
24843;SDS011;12921;51.392;12.240;2023-05-10T03:44:36;0.25;;;0.25;;
24843;SDS011;12921;51.392;12.240;2023-05-10T03:47:03;0.17;;;0.17;;
24843;SDS011;12921;51.392;12.240;2023-05-10T03:49:29;0.40;;;0.40;;
24843;SDS011;12921;51.392;12.240;2023-05-10T03:51:55;0.20;;;0.20;;
24843;SDS011;12921;51.392;12.240;2023-05-10T03:54:21;0.40;;;0.40;;
24843;SDS011;12921;51.392;12.240;2023-05-10T03:56:47;0.57;;;0.57;;
24843;SDS011;12921;51.392;12.240;2023-05-10T03:59:13;2.53;;;1.75;;
24843;SDS011;12921;51.392;12.240;2023-05-10T04:01:39;10.88;;;2.13;;
24843;SDS011;12921;51.392;12.240;2023-05-10T04:04:05;1.27;;;1.15;;
24843;SDS011;12921;51.392;12.240;2023-05-10T04:06:31;2.40;;;1.65;;
24843;SDS011;12921;51.392;12.240;2023-05-10T04:08:57;2.85;;;1.83;;
24843;SDS011;12921;51.392;12.240;2023-05-10T04:11:29;0.40;;;0.40;;
24843;SDS011;12921;51.392;12.240;2023-05-10T04:13:55;4.60;;;1.52;;
24843;SDS011;12921;51.392;12.240;2023-05-10T04:16:21;3.28;;;1.92;;
24843;SDS011;12921;51.392;12.240;2023-05-10T04:18:47;2.65;;;2.45;;
24843;SDS011;12921;51.392;12.240;2023-05-10T04:21:13;3.75;;;2.67;;
24843;SDS011;12921;51.392;12.240;2023-05-10T04:23:40;6.60;;;2.10;;
24843;SDS011;12921;51.392;12.240;2023-05-10T04:26:06;18.30;;;3.10;;
24843;SDS011;12921;51.392;12.240;2023-05-10T04:28:32;1.30;;;1.23;;
24843;SDS011;12921;51.392;12.240;2023-05-10T04:31:02;4.93;;;3.00;;
24843;SDS011;12921;51.392;12.240;2023-05-10T04:33:28;5.65;;;3.10;;
24843;SDS011;12921;51.392;12.240;2023-05-10T04:35:54;2.35;;;2.15;;
24843;SDS011;12921;51.392;12.240;2023-05-10T04:38:21;7.45;;;2.00;;
24843;SDS011;12921;51.392;12.240;2023-05-10T04:40:46;6.57;;;2.95;;
24843;SDS011;12921;51.392;12.240;2023-05-10T04:43:12;7.20;;;2.60;;
24843;SDS011;12921;51.392;12.240;2023-05-10T04:45:38;2.97;;;2.38;;
24843;SDS011;12921;51.392;12.240;2023-05-10T04:48:05;3.90;;;2.75;;
24843;SDS011;12921;51.392;12.240;2023-05-10T04:50:32;3.60;;;2.60;;
24843;SDS011;12921;51.392;12.240;2023-05-10T04:52:58;3.45;;;2.70;;
24843;SDS011;12921;51.392;12.240;2023-05-10T04:55:24;3.45;;;2.80;;
24843;SDS011;12921;51.392;12.240;2023-05-10T04:57:51;5.53;;;2.78;;
24843;SDS011;12921;51.392;12.240;2023-05-10T05:00:17;1.02;;;0.95;;
24843;SDS011;12921;51.392;12.240;2023-05-10T05:02:44;3.58;;;2.78;;
24843;SDS011;12921;51.392;12.240;2023-05-10T05:05:10;4.22;;;2.83;;
24843;SDS011;12921;51.392;12.240;2023-05-10T05:07:36;6.07;;;2.65;;
24843;SDS011;12921;51.392;12.240;2023-05-10T05:10:03;4.63;;;2.78;;
24843;SDS011;12921;51.392;12.240;2023-05-10T05:12:29;4.07;;;3.05;;
24843;SDS011;12921;51.392;12.240;2023-05-10T05:14:55;3.78;;;3.15;;
24843;SDS011;12921;51.392;12.240;2023-05-10T05:17:21;4.85;;;3.03;;
24843;SDS011;12921;51.392;12.240;2023-05-10T05:19:47;4.93;;;3.63;;
24843;SDS011;12921;51.392;12.240;2023-05-10T05:22:13;2.10;;;1.83;;
24843;SDS011;12921;51.392;12.240;2023-05-10T05:24:39;7.72;;;4.18;;
24843;SDS011;12921;51.392;12.240;2023-05-10T05:27:05;1.65;;;1.55;;
24843;SDS011;12921;51.392;12.240;2023-05-10T05:29:32;4.75;;;3.40;;
24843;SDS011;12921;51.392;12.240;2023-05-10T05:31:58;5.18;;;3.72;;
24843;SDS011;12921;51.392;12.240;2023-05-10T05:34:24;2.10;;;1.85;;
24843;SDS011;12921;51.392;12.240;2023-05-10T05:36:50;3.13;;;2.60;;
24843;SDS011;12921;51.392;12.240;2023-05-10T05:39:16;5.28;;;2.08;;
24843;SDS011;12921;51.392;12.240;2023-05-10T05:41:42;7.50;;;2.25;;
24843;SDS011;12921;51.392;12.240;2023-05-10T05:44:08;2.08;;;1.63;;
24843;SDS011;12921;51.392;12.240;2023-05-10T05:46:35;4.45;;;3.15;;
24843;SDS011;12921;51.392;12.240;2023-05-10T05:49:00;2.53;;;2.10;;
24843;SDS011;12921;51.392;12.240;2023-05-10T05:51:26;1.80;;;1.55;;
24843;SDS011;12921;51.392;12.240;2023-05-10T05:53:52;2.67;;;2.35;;
24843;SDS011;12921;51.392;12.240;2023-05-10T05:56:18;5.38;;;1.83;;
24843;SDS011;12921;51.392;12.240;2023-05-10T05:58:49;5.10;;;2.58;;
24843;SDS011;12921;51.392;12.240;2023-05-10T06:01:15;2.95;;;2.00;;
24843;SDS011;12921;51.392;12.240;2023-05-10T06:03:41;4.22;;;3.10;;
24843;SDS011;12921;51.392;12.240;2023-05-10T06:06:07;5.85;;;2.72;;
24843;SDS011;12921;51.392;12.240;2023-05-10T06:08:33;8.25;;;3.42;;
24843;SDS011;12921;51.392;12.240;2023-05-10T06:11:02;4.82;;;1.73;;
24843;SDS011;12921;51.392;12.240;2023-05-10T06:13:29;7.95;;;2.53;;
24843;SDS011;12921;51.392;12.240;2023-05-10T06:15:57;5.20;;;3.10;;
24843;SDS011;12921;51.392;12.240;2023-05-10T06:18:23;5.22;;;3.65;;
24843;SDS011;12921;51.392;12.240;2023-05-10T06:20:50;5.93;;;3.75;;
24843;SDS011;12921;51.392;12.240;2023-05-10T06:23:16;3.00;;;2.30;;
24843;SDS011;12921;51.392;12.240;2023-05-10T06:25:43;5.68;;;2.90;;
24843;SDS011;12921;51.392;12.240;2023-05-10T06:28:09;3.28;;;2.60;;
24843;SDS011;12921;51.392;12.240;2023-05-10T06:30:35;4.30;;;2.85;;
24843;SDS011;12921;51.392;12.240;2023-05-10T06:33:02;3.60;;;3.00;;
24843;SDS011;12921;51.392;12.240;2023-05-10T06:35:28;2.85;;;2.63;;
24843;SDS011;12921;51.392;12.240;2023-05-10T06:37:54;5.22;;;1.85;;
24843;SDS011;12921;51.392;12.240;2023-05-10T06:40:20;2.92;;;2.30;;
24843;SDS011;12921;51.392;12.240;2023-05-10T06:42:47;4.78;;;3.63;;
24843;SDS011;12921;51.392;12.240;2023-05-10T06:45:13;4.53;;;3.35;;
24843;SDS011;12921;51.392;12.240;2023-05-10T06:47:39;5.05;;;3.20;;
24843;SDS011;12921;51.392;12.240;2023-05-10T06:50:06;3.75;;;2.70;;
24843;SDS011;12921;51.392;12.240;2023-05-10T06:52:32;2.65;;;2.30;;
24843;SDS011;12921;51.392;12.240;2023-05-10T06:54:58;6.53;;;2.38;;
24843;SDS011;12921;51.392;12.240;2023-05-10T06:57:25;2.47;;;2.13;;
24843;SDS011;12921;51.392;12.240;2023-05-10T06:59:51;5.97;;;3.53;;
24843;SDS011;12921;51.392;12.240;2023-05-10T07:02:17;3.53;;;2.75;;
24843;SDS011;12921;51.392;12.240;2023-05-10T07:04:43;4.25;;;3.45;;
24843;SDS011;12921;51.392;12.240;2023-05-10T07:07:09;4.68;;;2.95;;
24843;SDS011;12921;51.392;12.240;2023-05-10T07:09:35;7.40;;;3.88;;
24843;SDS011;12921;51.392;12.240;2023-05-10T07:12:01;4.20;;;3.80;;
24843;SDS011;12921;51.392;12.240;2023-05-10T07:14:27;4.22;;;2.78;;
24843;SDS011;12921;51.392;12.240;2023-05-10T07:16:53;5.70;;;3.63;;
24843;SDS011;12921;51.392;12.240;2023-05-10T07:19:20;2.88;;;2.20;;
24843;SDS011;12921;51.392;12.240;2023-05-10T07:21:46;4.90;;;2.53;;
24843;SDS011;12921;51.392;12.240;2023-05-10T07:24:12;10.80;;;2.00;;
24843;SDS011;12921;51.392;12.240;2023-05-10T07:26:38;5.28;;;2.72;;
24843;SDS011;12921;51.392;12.240;2023-05-10T07:29:03;3.38;;;3.08;;
24843;SDS011;12921;51.392;12.240;2023-05-10T07:31:30;4.95;;;2.50;;
24843;SDS011;12921;51.392;12.240;2023-05-10T07:33:56;9.13;;;4.18;;
24843;SDS011;12921;51.392;12.240;2023-05-10T07:36:22;3.95;;;3.00;;
24843;SDS011;12921;51.392;12.240;2023-05-10T07:38:48;3.92;;;2.35;;
24843;SDS011;12921;51.392;12.240;2023-05-10T07:41:14;4.25;;;2.40;;
24843;SDS011;12921;51.392;12.240;2023-05-10T07:43:40;1.58;;;1.48;;
24843;SDS011;12921;51.392;12.240;2023-05-10T07:46:06;4.68;;;3.03;;
24843;SDS011;12921;51.392;12.240;2023-05-10T07:48:36;2.88;;;1.75;;
24843;SDS011;12921;51.392;12.240;2023-05-10T07:51:02;4.93;;;3.28;;
24843;SDS011;12921;51.392;12.240;2023-05-10T07:53:28;1.27;;;0.63;;
24843;SDS011;12921;51.392;12.240;2023-05-10T07:55:54;2.90;;;2.55;;
24843;SDS011;12921;51.392;12.240;2023-05-10T07:58:23;3.42;;;2.22;;
24843;SDS011;12921;51.392;12.240;2023-05-10T08:00:49;6.65;;;3.22;;
24843;SDS011;12921;51.392;12.240;2023-05-10T08:03:15;6.43;;;2.38;;
24843;SDS011;12921;51.392;12.240;2023-05-10T08:05:41;5.20;;;2.78;;
24843;SDS011;12921;51.392;12.240;2023-05-10T08:08:07;1.88;;;1.35;;
24843;SDS011;12921;51.392;12.240;2023-05-10T08:10:33;4.10;;;2.58;;
24843;SDS011;12921;51.392;12.240;2023-05-10T08:12:59;4.80;;;3.05;;
24843;SDS011;12921;51.392;12.240;2023-05-10T08:15:25;2.35;;;2.15;;
24843;SDS011;12921;51.392;12.240;2023-05-10T08:17:51;11.25;;;4.47;;
24843;SDS011;12921;51.392;12.240;2023-05-10T08:20:17;4.35;;;2.53;;
24843;SDS011;12921;51.392;12.240;2023-05-10T08:22:45;2.72;;;1.60;;
24843;SDS011;12921;51.392;12.240;2023-05-10T08:25:11;1.45;;;1.35;;
24843;SDS011;12921;51.392;12.240;2023-05-10T08:27:37;2.88;;;1.77;;
24843;SDS011;12921;51.392;12.240;2023-05-10T08:30:03;3.38;;;2.58;;
24843;SDS011;12921;51.392;12.240;2023-05-10T08:32:29;3.42;;;2.50;;
24843;SDS011;12921;51.392;12.240;2023-05-10T08:34:55;3.83;;;2.33;;
24843;SDS011;12921;51.392;12.240;2023-05-10T08:37:22;2.55;;;2.10;;
24843;SDS011;12921;51.392;12.240;2023-05-10T08:39:48;4.78;;;3.33;;
24843;SDS011;12921;51.392;12.240;2023-05-10T08:42:16;3.50;;;1.85;;
24843;SDS011;12921;51.392;12.240;2023-05-10T08:44:46;3.85;;;2.72;;
24843;SDS011;12921;51.392;12.240;2023-05-10T08:47:13;4.35;;;2.88;;
24843;SDS011;12921;51.392;12.240;2023-05-10T08:49:40;2.92;;;2.33;;
24843;SDS011;12921;51.392;12.240;2023-05-10T08:52:07;4.50;;;3.55;;
24843;SDS011;12921;51.392;12.240;2023-05-10T08:54:33;3.97;;;3.15;;
24843;SDS011;12921;51.392;12.240;2023-05-10T08:57:00;3.92;;;2.50;;
24843;SDS011;12921;51.392;12.240;2023-05-10T08:59:26;4.35;;;3.22;;
24843;SDS011;12921;51.392;12.240;2023-05-10T09:01:52;2.65;;;1.67;;
24843;SDS011;12921;51.392;12.240;2023-05-10T09:04:20;5.93;;;3.28;;
24843;SDS011;12921;51.392;12.240;2023-05-10T09:06:46;5.75;;;4.43;;
24843;SDS011;12921;51.392;12.240;2023-05-10T09:09:12;6.35;;;4.40;;
24843;SDS011;12921;51.392;12.240;2023-05-10T09:11:39;4.78;;;2.75;;
24843;SDS011;12921;51.392;12.240;2023-05-10T09:14:05;5.40;;;3.65;;
24843;SDS011;12921;51.392;12.240;2023-05-10T09:16:32;7.93;;;4.60;;
24843;SDS011;12921;51.392;12.240;2023-05-10T09:18:58;8.27;;;5.70;;
24843;SDS011;12921;51.392;12.240;2023-05-10T09:21:24;5.15;;;4.32;;
24843;SDS011;12921;51.392;12.240;2023-05-10T09:23:50;3.38;;;2.95;;
24843;SDS011;12921;51.392;12.240;2023-05-10T09:26:21;9.07;;;5.35;;
24843;SDS011;12921;51.392;12.240;2023-05-10T09:31:16;7.03;;;5.47;;
24843;SDS011;12921;51.392;12.240;2023-05-10T09:33:45;4.75;;;3.13;;
24843;SDS011;12921;51.392;12.240;2023-05-10T09:36:12;6.78;;;4.65;;
24843;SDS011;12921;51.392;12.240;2023-05-10T09:38:45;6.47;;;5.80;;
24843;SDS011;12921;51.392;12.240;2023-05-10T09:41:15;12.05;;;7.40;;
24843;SDS011;12921;51.392;12.240;2023-05-10T09:43:42;2.28;;;1.63;;
24843;SDS011;12921;51.392;12.240;2023-05-10T09:46:08;11.23;;;6.63;;
24843;SDS011;12921;51.392;12.240;2023-05-10T09:48:39;7.28;;;5.40;;
24843;SDS011;12921;51.392;12.240;2023-05-10T09:51:07;10.88;;;8.00;;
24843;SDS011;12921;51.392;12.240;2023-05-10T09:53:33;12.10;;;8.68;;
24843;SDS011;12921;51.392;12.240;2023-05-10T09:55:59;6.75;;;3.03;;
24843;SDS011;12921;51.392;12.240;2023-05-10T09:58:25;4.50;;;3.80;;
24843;SDS011;12921;51.392;12.240;2023-05-10T10:00:51;9.27;;;7.68;;
24843;SDS011;12921;51.392;12.240;2023-05-10T10:03:18;12.10;;;8.60;;
24843;SDS011;12921;51.392;12.240;2023-05-10T10:05:44;6.60;;;4.60;;
24843;SDS011;12921;51.392;12.240;2023-05-10T10:08:12;5.50;;;4.47;;
24843;SDS011;12921;51.392;12.240;2023-05-10T10:10:39;11.90;;;7.03;;
24843;SDS011;12921;51.392;12.240;2023-05-10T10:13:06;15.40;;;6.80;;
24843;SDS011;12921;51.392;12.240;2023-05-10T10:15:32;6.22;;;3.90;;
24843;SDS011;12921;51.392;12.240;2023-05-10T10:17:58;5.72;;;4.43;;
24843;SDS011;12921;51.392;12.240;2023-05-10T10:20:25;7.20;;;5.35;;
24843;SDS011;12921;51.392;12.240;2023-05-10T10:22:51;12.45;;;5.88;;
24843;SDS011;12921;51.392;12.240;2023-05-10T10:25:17;11.88;;;7.03;;
24843;SDS011;12921;51.392;12.240;2023-05-10T10:32:59;10.50;;;7.20;;
24843;SDS011;12921;51.392;12.240;2023-05-10T10:35:27;11.70;;;5.97;;
24843;SDS011;12921;51.392;12.240;2023-05-10T10:37:53;9.35;;;6.40;;
24843;SDS011;12921;51.392;12.240;2023-05-10T10:42:49;7.10;;;5.20;;
24843;SDS011;12921;51.392;12.240;2023-05-10T10:45:15;14.55;;;9.50;;
24843;SDS011;12921;51.392;12.240;2023-05-10T10:47:41;10.63;;;7.88;;
24843;SDS011;12921;51.392;12.240;2023-05-10T10:50:08;10.82;;;7.07;;
24843;SDS011;12921;51.392;12.240;2023-05-10T10:52:36;7.95;;;3.97;;
24843;SDS011;12921;51.392;12.240;2023-05-10T10:55:09;8.52;;;4.72;;
24843;SDS011;12921;51.392;12.240;2023-05-10T11:00:18;15.82;;;5.63;;
24843;SDS011;12921;51.392;12.240;2023-05-10T11:02:45;5.07;;;2.42;;
24843;SDS011;12921;51.392;12.240;2023-05-10T11:07:55;12.02;;;7.70;;
24843;SDS011;12921;51.392;12.240;2023-05-10T11:10:21;3.80;;;2.88;;
24843;SDS011;12921;51.392;12.240;2023-05-10T11:12:51;13.48;;;6.35;;
24843;SDS011;12921;51.392;12.240;2023-05-10T11:15:18;9.27;;;5.78;;
24843;SDS011;12921;51.392;12.240;2023-05-10T11:17:45;7.32;;;5.53;;
24843;SDS011;12921;51.392;12.240;2023-05-10T11:20:15;9.25;;;5.97;;
24843;SDS011;12921;51.392;12.240;2023-05-10T11:22:54;10.63;;;6.35;;
24843;SDS011;12921;51.392;12.240;2023-05-10T11:25:25;12.65;;;7.45;;
24843;SDS011;12921;51.392;12.240;2023-05-10T11:27:52;11.40;;;5.63;;
24843;SDS011;12921;51.392;12.240;2023-05-10T11:30:18;6.38;;;3.92;;
24843;SDS011;12921;51.392;12.240;2023-05-10T11:32:44;13.52;;;8.75;;
24843;SDS011;12921;51.392;12.240;2023-05-10T11:35:10;10.90;;;7.50;;
24843;SDS011;12921;51.392;12.240;2023-05-10T11:37:38;6.72;;;4.85;;
24843;SDS011;12921;51.392;12.240;2023-05-10T11:40:08;6.63;;;4.68;;
24843;SDS011;12921;51.392;12.240;2023-05-10T11:42:37;11.70;;;7.22;;
24843;SDS011;12921;51.392;12.240;2023-05-10T11:45:04;12.75;;;6.65;;
24843;SDS011;12921;51.392;12.240;2023-05-10T11:47:30;11.25;;;7.57;;
24843;SDS011;12921;51.392;12.240;2023-05-10T11:49:56;10.27;;;6.22;;
24843;SDS011;12921;51.392;12.240;2023-05-10T11:52:23;8.68;;;5.50;;
24843;SDS011;12921;51.392;12.240;2023-05-10T11:54:52;8.75;;;2.78;;
24843;SDS011;12921;51.392;12.240;2023-05-10T11:57:18;11.88;;;8.40;;
24843;SDS011;12921;51.392;12.240;2023-05-10T11:59:45;10.55;;;6.82;;
24843;SDS011;12921;51.392;12.240;2023-05-10T12:02:12;10.00;;;5.35;;
24843;SDS011;12921;51.392;12.240;2023-05-10T12:04:38;9.68;;;5.20;;
24843;SDS011;12921;51.392;12.240;2023-05-10T12:07:04;8.15;;;5.78;;
24843;SDS011;12921;51.392;12.240;2023-05-10T12:09:30;12.38;;;10.00;;
24843;SDS011;12921;51.392;12.240;2023-05-10T12:11:56;14.02;;;6.65;;
24843;SDS011;12921;51.392;12.240;2023-05-10T12:14:22;7.82;;;6.05;;
24843;SDS011;12921;51.392;12.240;2023-05-10T12:16:49;8.68;;;5.43;;
24843;SDS011;12921;51.392;12.240;2023-05-10T12:19:18;9.60;;;6.32;;
24843;SDS011;12921;51.392;12.240;2023-05-10T12:21:46;5.47;;;4.40;;
24843;SDS011;12921;51.392;12.240;2023-05-10T12:24:12;6.32;;;3.33;;
24843;SDS011;12921;51.392;12.240;2023-05-10T12:26:41;11.63;;;7.07;;
24843;SDS011;12921;51.392;12.240;2023-05-10T12:31:56;15.02;;;8.98;;
24843;SDS011;12921;51.392;12.240;2023-05-10T12:34:32;12.65;;;7.53;;
24843;SDS011;12921;51.392;12.240;2023-05-10T12:36:59;8.93;;;5.50;;
24843;SDS011;12921;51.392;12.240;2023-05-10T12:39:25;10.25;;;5.15;;
24843;SDS011;12921;51.392;12.240;2023-05-10T12:41:51;12.20;;;8.55;;
24843;SDS011;12921;51.392;12.240;2023-05-10T12:44:17;9.15;;;6.65;;
24843;SDS011;12921;51.392;12.240;2023-05-10T12:46:44;9.23;;;6.28;;
24843;SDS011;12921;51.392;12.240;2023-05-10T12:49:10;9.68;;;6.85;;
24843;SDS011;12921;51.392;12.240;2023-05-10T12:51:36;7.80;;;6.15;;
24843;SDS011;12921;51.392;12.240;2023-05-10T12:54:02;9.73;;;6.72;;
24843;SDS011;12921;51.392;12.240;2023-05-10T12:56:28;4.65;;;3.42;;
24843;SDS011;12921;51.392;12.240;2023-05-10T12:58:54;14.73;;;8.73;;
24843;SDS011;12921;51.392;12.240;2023-05-10T13:01:20;8.73;;;4.75;;
24843;SDS011;12921;51.392;12.240;2023-05-10T13:03:46;9.65;;;6.93;;
24843;SDS011;12921;51.392;12.240;2023-05-10T13:06:13;9.27;;;6.82;;
24843;SDS011;12921;51.392;12.240;2023-05-10T13:08:39;12.30;;;6.10;;
24843;SDS011;12921;51.392;12.240;2023-05-10T13:11:05;4.75;;;3.22;;
24843;SDS011;12921;51.392;12.240;2023-05-10T13:13:32;7.80;;;5.75;;
24843;SDS011;12921;51.392;12.240;2023-05-10T13:15:59;0.43;;;0.30;;
24843;SDS011;12921;51.392;12.240;2023-05-10T13:18:24;11.02;;;5.38;;
24843;SDS011;12921;51.392;12.240;2023-05-10T13:20:51;1.85;;;1.48;;
24843;SDS011;12921;51.392;12.240;2023-05-10T13:23:17;4.78;;;3.05;;
24843;SDS011;12921;51.392;12.240;2023-05-10T13:25:43;1.50;;;1.40;;
24843;SDS011;12921;51.392;12.240;2023-05-10T13:28:09;4.50;;;4.03;;
24843;SDS011;12921;51.392;12.240;2023-05-10T13:30:35;1.50;;;1.40;;
24843;SDS011;12921;51.392;12.240;2023-05-10T13:33:01;6.10;;;1.77;;
24843;SDS011;12921;51.392;12.240;2023-05-10T13:35:27;2.53;;;0.43;;
24843;SDS011;12921;51.392;12.240;2023-05-10T13:37:53;2.25;;;1.38;;
24843;SDS011;12921;51.392;12.240;2023-05-10T13:40:21;2.05;;;0.60;;
24843;SDS011;12921;51.392;12.240;2023-05-10T13:42:47;2.03;;;1.67;;
24843;SDS011;12921;51.392;12.240;2023-05-10T13:45:13;0.55;;;0.55;;
24843;SDS011;12921;51.392;12.240;2023-05-10T13:47:39;0.30;;;0.30;;
24843;SDS011;12921;51.392;12.240;2023-05-10T13:50:06;1.08;;;0.40;;
24843;SDS011;12921;51.392;12.240;2023-05-10T13:52:32;0.30;;;0.30;;
24843;SDS011;12921;51.392;12.240;2023-05-10T13:54:58;0.50;;;0.50;;
24843;SDS011;12921;51.392;12.240;2023-05-10T13:57:24;0.30;;;0.30;;
24843;SDS011;12921;51.392;12.240;2023-05-10T13:59:51;0.10;;;0.10;;
24843;SDS011;12921;51.392;12.240;2023-05-10T14:02:17;0.70;;;0.70;;
24843;SDS011;12921;51.392;12.240;2023-05-10T14:04:43;0.85;;;0.63;;
24843;SDS011;12921;51.392;12.240;2023-05-10T14:07:09;0.52;;;0.52;;
24843;SDS011;12921;51.392;12.240;2023-05-10T14:09:35;0.32;;;0.32;;
24843;SDS011;12921;51.392;12.240;2023-05-10T14:12:01;0.40;;;0.40;;
24843;SDS011;12921;51.392;12.240;2023-05-10T14:14:27;0.85;;;0.60;;
24843;SDS011;12921;51.392;12.240;2023-05-10T14:16:54;0.38;;;0.38;;
24843;SDS011;12921;51.392;12.240;2023-05-10T14:19:20;0.40;;;0.40;;
24843;SDS011;12921;51.392;12.240;2023-05-10T14:21:46;0.40;;;0.40;;
24843;SDS011;12921;51.392;12.240;2023-05-10T14:24:12;0.10;;;0.10;;
24843;SDS011;12921;51.392;12.240;2023-05-10T14:26:38;0.45;;;0.45;;
24843;SDS011;12921;51.392;12.240;2023-05-10T14:29:04;0.40;;;0.40;;
24843;SDS011;12921;51.392;12.240;2023-05-10T14:31:31;6.20;;;0.40;;
24843;SDS011;12921;51.392;12.240;2023-05-10T14:33:57;0.15;;;0.15;;
24843;SDS011;12921;51.392;12.240;2023-05-10T14:36:24;0.40;;;0.40;;
24843;SDS011;12921;51.392;12.240;2023-05-10T14:38:50;0.25;;;0.25;;
24843;SDS011;12921;51.392;12.240;2023-05-10T14:41:17;0.20;;;0.20;;
24843;SDS011;12921;51.392;12.240;2023-05-10T14:43:43;0.35;;;0.35;;
24843;SDS011;12921;51.392;12.240;2023-05-10T14:46:09;0.25;;;0.25;;
24843;SDS011;12921;51.392;12.240;2023-05-10T14:48:35;0.28;;;0.28;;
24843;SDS011;12921;51.392;12.240;2023-05-10T14:51:01;0.43;;;0.43;;
24843;SDS011;12921;51.392;12.240;2023-05-10T14:53:28;5.50;;;0.60;;
24843;SDS011;12921;51.392;12.240;2023-05-10T14:55:54;0.98;;;0.57;;
24843;SDS011;12921;51.392;12.240;2023-05-10T14:58:20;1.23;;;0.35;;
24843;SDS011;12921;51.392;12.240;2023-05-10T15:00:46;5.35;;;2.33;;
24843;SDS011;12921;51.392;12.240;2023-05-10T15:03:12;4.10;;;3.05;;
24843;SDS011;12921;51.392;12.240;2023-05-10T15:05:38;0.38;;;0.38;;
24843;SDS011;12921;51.392;12.240;2023-05-10T15:08:04;0.90;;;0.63;;
24843;SDS011;12921;51.392;12.240;2023-05-10T15:10:31;0.10;;;0.10;;